This is the latest recevied weather packets stored in our database for station/object AD4WX-13. If no packets are shown the sender has not sent any weather packets the latest 1 day(s).
| Time | Temp. | Humidity | Pressure | Rain* | Wind** | Luminosity | Snow |
|---|---|---|---|---|---|---|---|
| 1778044453 | 21.11° C | 77% | 1005.2 hPa | 0 mm | 0.89 m/s, 151° | 0 W/m² | - |
| 1778034100 | 20° C | 79% | 1006.2 hPa | 0 mm | 0.45 m/s, 171° | 0 W/m² | - |
| 1778032210 | 20° C | 78% | 1005.9 hPa | 0 mm | 0.45 m/s, 142° | 0 W/m² | - |
| 1778030323 | 20° C | 78% | 1005.8 hPa | 0 mm | 0.45 m/s, 196° | 0 W/m² | - |
| 1778022333 | 20° C | 77% | 1006.1 hPa | 0 mm | 0.45 m/s, 143° | 25 W/m² | - |
| 1778021625 | 20° C | 78% | 1006.1 hPa | 0 mm | 0.45 m/s, 310° | 32 W/m² | - |
| 1778017888 | 19.44° C | 78% | 1006.2 hPa | 0 mm | 0.89 m/s, 225° | 97 W/m² | - |
| 1778012357 | 18.33° C | 88% | 1006.7 hPa | 0 mm | 0.45 m/s, 42° | 332 W/m² | - |
| 1778010469 | 17.22° C | 89% | 1007 hPa | 3.05 mm | 0.89 m/s, 168° | 220 W/m² | - |
| 1778009192 | 17.22° C | 88% | 1006.3 hPa | 2.29 mm | 0 m/s | 149 W/m² | - |
| 1778004268 | 18.33° C | 82% | 1007.6 hPa | 0 mm | 1.34 m/s, 243° | 320 W/m² | - |
| 1778001798 | 17.78° C | 85% | 1008.5 hPa | 0 mm | 0.89 m/s, 98° | 260 W/m² | - |
| 1777995082 | 16.67° C | 82% | 1009.9 hPa | 0 mm | 0 m/s | 84 W/m² | - |
| 1777994402 | 16.67° C | 80% | 1010.1 hPa | 0 mm | 0 m/s | 42 W/m² | - |
| 1777991309 | 16.67° C | 78% | 1010.3 hPa | 0 mm | 0.45 m/s, 128° | 98 W/m² | - |
| 1777977844 | 12.22° C | 91% | 1008.3 hPa | 0 mm | 0 m/s | 0 W/m² | - |
| 1777975961 | 12.22° C | 90% | 1008.2 hPa | 0 mm | 0 m/s | 0 W/m² | - |
| 1777974678 | 12.22° C | 89% | 1008.1 hPa | 0 mm | 0 m/s | 0 W/m² | - |
| 1777973398 | 12.22° C | 88% | 1008 hPa | 0 mm | 0 m/s | 0 W/m² | - |
| 1777966663 | 11.67° C | 90% | 1008.1 hPa | 0 mm | 0 m/s | 0 W/m² | - |
| 1777964179 | 11.67° C | 90% | 1009.1 hPa | 0 mm | 0 m/s | 0 W/m² | - |
| 1777962357 | 11.67° C | 89% | 1009.1 hPa | 0 mm | 0 m/s | 0 W/m² | - |
| 1777959878 | 12.22° C | 87% | 1009.2 hPa | 0 mm | 0 m/s | 0 W/m² | - |
* Rain latest hour (hover to see other rain measurements)
** Current wind speed in m/s (hover to see current wind gust speed)